KDEN/DEN METAR and TAF weather

Enter ICAO airport designator
Station Type Date Time Source
KDEN METAR 2020/04/07 01:53 UTC NOAA

KDEN 070153Z 02006KT 10SM FEW120 FEW250 16/M07 A2981 RMK AO2 SLP045 T01611072


Station Type Date Time Source
KDEN Decoded METAR 2020/04/07 01:53 UTC NOAA

DENVER INTERNATIONAL AIRPORT, CO, United States (KDEN) 39-52N 104-40W 1640M
Apr 06, 2020 - 09:53 PM EDT / 2020.04.07 0153 UTC
Wind: from the NNE (020 degrees) at 7 MPH (6 KT):0
Visibility: 10 mile(s):0
Sky conditions: mostly clear
Temperature: 61.0 F (16.1 C)
Dew Point: 19.0 F (-7.2 C)
Relative Humidity: 19%
Pressure (altimeter): 29.81 in. Hg (1009 hPa)
ob: KDEN 070153Z 02006KT 10SM FEW120 FEW250 16/M07 A2981 RMK AO2 SLP045 T01611072
cycle: 2

Station Type Date Time Source
KDEN TAF 2020/04/07 02:42 UTC NOAA

TAF
AMD KDEN 070141Z 0702/0806 01008KT P6SM FEW110
FM070300 14007KT P6SM FEW110
FM070500 22011KT P6SM FEW110
FM071500 28008KT P6SM FEW110 SCT220
FM071900 29017G25KT P6SM FEW120 SCT220

Example: see airport list